Time;durP1;ratioP1;P1;durP2;ratioP2;P2;SDS_P1;SDS_P2;PMS_P1;PMS_P2;Temp;Humidity;BMP_temperature;BMP_pressure;BME280_temperature;BME280_humidity;BME280_pressure;Samples;Min_cycle;Max_cycle;Signal;HPM_P1;HPM_P2
2022/07/29 00:00:40;;;;;;;4.50;3.60;;;28.70;62.60;;;;;;6337888;22;20027;-83
2022/07/29 00:03:06;;;;;;;6.28;4.43;;;28.70;62.80;;;;;;6338382;22;20319;-84
2022/07/29 00:05:31;;;;;;;6.95;4.22;;;28.70;63.60;;;;;;6337252;22;19998;-83
2022/07/29 00:07:57;;;;;;;6.63;4.43;;;28.60;63.50;;;;;;6338501;22;20070;-84
2022/07/29 00:10:23;;;;;;;8.65;3.67;;;28.60;64.20;;;;;;6338228;22;19999;-83
2022/07/29 00:12:49;;;;;;;7.35;4.28;;;28.60;63.70;;;;;;6338862;22;20024;-84
2022/07/29 00:15:14;;;;;;;7.47;3.80;;;28.50;64.00;;;;;;6337613;22;19998;-85
2022/07/29 00:17:40;;;;;;;4.55;3.60;;;28.50;63.90;;;;;;6310810;22;20006;-83
2022/07/29 00:20:06;;;;;;;4.95;3.58;;;28.50;63.90;;;;;;6338709;22;19998;-84
2022/07/29 00:22:32;;;;;;;5.82;3.58;;;28.50;64.20;;;;;;6338982;22;20008;-85
2022/07/29 00:24:58;;;;;;;5.20;4.10;;;28.50;64.30;;;;;;6338306;22;20003;-85
2022/07/29 00:27:24;;;;;;;5.95;3.58;;;28.40;64.30;;;;;;6338456;22;20026;-86
2022/07/29 00:29:49;;;;;;;4.68;3.72;;;28.40;64.20;;;;;;6338461;22;20048;-85
2022/07/29 00:32:15;;;;;;;6.47;3.63;;;28.40;64.20;;;;;;6338192;22;19999;-83
2022/07/29 00:37:25;;;;;;;5.82;3.72;;;28.30;64.40;;;;;;6338615;22;20014;-79
2022/07/29 00:39:51;;;;;;;10.48;4.50;;;28.30;64.20;;;;;;6338202;22;19999;-85
2022/07/29 00:42:17;;;;;;;7.50;4.55;;;28.20;64.20;;;;;;6338805;22;20026;-78
2022/07/29 00:44:43;;;;;;;6.82;4.40;;;28.10;64.10;;;;;;6337686;22;19995;-80
2022/07/29 00:47:12;;;;;;;6.55;3.72;;;28.00;63.90;;;;;;6337785;22;19999;-79
2022/07/29 00:49:40;;;;;;;5.55;3.95;;;28.00;63.80;;;;;;6338720;22;20007;-78
2022/07/29 00:52:06;;;;;;;5.25;3.97;;;27.90;63.40;;;;;;6339849;22;19995;-79
2022/07/29 00:54:33;;;;;;;7.82;4.00;;;27.80;63.10;;;;;;6312382;22;20080;-79
2022/07/29 00:57:00;;;;;;;4.13;2.63;;;27.70;61.00;;;;;;6339883;22;20006;-79
2022/07/29 00:59:29;;;;;;;3.67;2.55;;;27.60;61.60;;;;;;6339281;22;20002;-79
2022/07/29 01:01:55;;;;;;;6.85;2.58;;;27.70;61.50;;;;;;6339814;22;20425;-78
2022/07/29 01:04:24;;;;;;;3.72;2.30;;;27.70;60.60;;;;;;6339022;22;20006;-78
2022/07/29 01:06:50;;;;;;;2.50;2.30;;;27.80;58.90;;;;;;6340133;22;19995;-78
2022/07/29 01:09:18;;;;;;;3.30;2.50;;;27.80;59.30;;;;;;6340012;22;20009;-80
2022/07/29 01:11:45;;;;;;;2.17;1.70;;;27.80;58.20;;;;;;6312341;22;20003;-80
2022/07/29 01:14:12;;;;;;;2.75;1.92;;;27.70;58.40;;;;;;6338838;22;20006;-79
2022/07/29 01:16:54;;;;;;;2.50;1.55;;;27.70;58.20;;;;;;6339433;22;20003;-79
2022/07/29 01:19:50;;;;;;;3.92;2.13;;;27.80;57.70;;;;;;6339195;22;19999;-79
2022/07/29 01:22:19;;;;;;;3.70;1.58;;;27.80;56.60;;;;;;6312249;22;20075;-79
2022/07/29 01:25:03;;;;;;;4.63;1.48;;;27.80;57.10;;;;;;6338922;22;19998;-78
2022/07/29 01:27:51;;;;;;;2.08;1.40;;;27.80;56.20;;;;;;6339978;22;19999;-82
2022/07/29 01:30:17;;;;;;;2.03;1.27;;;27.90;57.00;;;;;;6339290;22;20428;-83
2022/07/29 01:32:47;;;;;;;3.78;1.73;;;28.00;57.00;;;;;;6339447;22;19999;-78
2022/07/29 01:35:36;;;;;;;1.80;1.52;;;28.00;56.80;;;;;;6311748;22;20011;-77
2022/07/29 01:38:07;;;;;;;1.77;1.63;;;28.10;56.50;;;;;;6339587;22;20305;-77
2022/07/29 01:40:42;;;;;;;3.20;1.30;;;28.20;56.60;;;;;;6338939;22;20073;-79
2022/07/29 01:43:16;;;;;;;2.15;1.65;;;28.20;56.60;;;;;;6311052;22;20007;-80
2022/07/29 01:45:52;;;;;;;2.42;1.58;;;28.30;56.70;;;;;;6337820;22;20086;-79
2022/07/29 01:48:23;;;;;;;1.88;1.40;;;28.30;56.40;;;;;;6339515;22;19995;-79
2022/07/29 01:51:02;;;;;;;2.80;1.48;;;28.40;56.50;;;;;;6339294;22;19994;-79
2022/07/29 01:53:47;;;;;;;2.78;1.98;;;28.40;56.20;;;;;;6339055;22;20006;-79
2022/07/29 01:56:16;;;;;;;1.67;1.48;;;28.40;55.90;;;;;;6338411;22;19999;-80
2022/07/29 01:58:43;;;;;;;2.38;1.50;;;28.40;55.80;;;;;;6339083;22;20010;-81
2022/07/29 02:01:12;;;;;;;1.98;1.58;;;28.40;55.60;;;;;;6337760;22;20463;-80
2022/07/29 02:03:38;;;;;;;4.43;1.55;;;28.40;55.40;;;;;;6339097;22;20052;-80
2022/07/29 02:06:07;;;;;;;5.50;1.65;;;28.30;54.70;;;;;;6311878;22;20413;-80
2022/07/29 02:08:35;;;;;;;3.47;1.77;;;28.30;55.20;;;;;;6338765;22;20429;-81
2022/07/29 02:11:03;;;;;;;2.92;1.50;;;28.30;54.90;;;;;;6339545;22;20006;-81
2022/07/29 02:13:30;;;;;;;2.08;1.65;;;28.30;55.30;;;;;;6338862;22;19999;-78
2022/07/29 02:15:58;;;;;;;1.50;1.35;;;28.30;55.60;;;;;;6339038;22;20056;-79
2022/07/29 02:18:27;;;;;;;2.05;1.58;;;28.30;55.40;;;;;;6338782;22;20007;-80
2022/07/29 02:20:56;;;;;;;1.75;1.55;;;28.40;55.30;;;;;;6339106;22;19995;-79
2022/07/29 02:23:23;;;;;;;2.97;1.55;;;28.40;55.50;;;;;;6338657;22;20003;-78
2022/07/29 02:25:52;;;;;;;2.88;1.90;;;28.40;55.50;;;;;;6310961;22;19999;-79
2022/07/29 02:28:20;;;;;;;2.97;1.63;;;28.40;55.60;;;;;;6338747;22;19999;-78
2022/07/29 02:30:47;;;;;;;3.45;2.00;;;28.40;55.90;;;;;;6338470;22;20297;-78
2022/07/29 02:33:15;;;;;;;2.13;1.83;;;28.50;56.10;;;;;;6338659;22;20033;-78
2022/07/29 02:35:43;;;;;;;6.35;2.20;;;28.50;56.10;;;;;;6339252;22;20074;-77
2022/07/29 02:41:01;;;;;;;3.10;2.08;;;28.40;55.70;;;;;;6339195;22;20017;-78
2022/07/29 02:43:27;;;;;;;3.65;1.95;;;28.40;56.00;;;;;;6338922;22;20030;-78
2022/07/29 02:45:54;;;;;;;2.92;2.20;;;28.20;56.10;;;;;;6339091;22;20005;-77
2022/07/29 02:48:27;;;;;;;3.13;2.28;;;28.20;56.30;;;;;;6338867;22;20006;-78
2022/07/29 02:51:01;;;;;;;4.63;3.30;;;28.20;56.60;;;;;;6339194;22;20002;-80
2022/07/29 02:53:28;;;;;;;12.00;3.30;;;28.10;57.10;;;;;;6337987;22;20103;-79
2022/07/29 02:56:14;;;;;;;3.33;2.40;;;27.90;57.70;;;;;;6336892;22;20003;-79
2022/07/29 02:58:49;;;;;;;5.97;2.47;;;27.80;57.60;;;;;;6338324;22;20019;-77
2022/07/29 03:01:23;;;;;;;4.18;2.25;;;27.80;57.80;;;;;;6338831;22;20014;-77
2022/07/29 03:03:51;;;;;;;2.55;2.25;;;27.90;57.80;;;;;;6310332;22;20444;-77
2022/07/29 03:06:18;;;;;;;3.65;2.15;;;27.90;57.70;;;;;;6311192;22;20030;-77
2022/07/29 03:08:45;;;;;;;2.78;2.10;;;27.90;57.60;;;;;;6310133;22;20006;-76
2022/07/29 03:11:13;;;;;;;2.35;2.00;;;27.90;57.60;;;;;;6338951;22;19999;-76
2022/07/29 03:13:39;;;;;;;2.10;1.90;;;27.90;57.60;;;;;;6337888;22;20476;-76
2022/07/29 03:16:06;;;;;;;4.03;2.03;;;27.90;57.70;;;;;;6338828;22;20052;-77
2022/07/29 03:18:32;;;;;;;2.05;1.50;;;27.90;57.50;;;;;;6310890;22;20003;-76
2022/07/29 03:20:58;;;;;;;3.85;2.22;;;27.80;57.50;;;;;;6338740;22;20003;-76
2022/07/29 03:23:25;;;;;;;4.22;1.80;;;27.70;57.60;;;;;;6338356;22;20076;-76
2022/07/29 03:25:52;;;;;;;4.35;1.88;;;27.70;57.70;;;;;;6337471;22;20022;-78
2022/07/29 03:28:18;;;;;;;3.15;2.13;;;27.60;58.00;;;;;;6338270;22;20006;-78
2022/07/29 03:30:44;;;;;;;2.65;1.60;;;27.50;58.50;;;;;;6338399;22;19999;-78
2022/07/29 03:33:09;;;;;;;3.45;1.65;;;27.50;58.40;;;;;;6310498;22;20421;-78
2022/07/29 03:35:35;;;;;;;4.93;2.13;;;27.40;58.70;;;;;;6338049;22;20052;-78
2022/07/29 03:38:01;;;;;;;1.75;1.48;;;27.40;59.00;;;;;;6337635;22;20029;-79
2022/07/29 03:40:46;;;;;;;3.00;1.83;;;27.40;59.30;;;;;;6337554;22;20076;-78
2022/07/29 03:43:15;;;;;;;2.13;1.60;;;27.30;59.30;;;;;;6311046;22;20011;-78
2022/07/29 03:45:45;;;;;;;3.80;2.50;;;27.30;59.50;;;;;;6338169;22;20005;-78
2022/07/29 03:48:15;;;;;;;1.90;1.63;;;27.30;60.60;;;;;;6310813;22;20034;-77
2022/07/29 03:50:40;;;;;;;2.45;2.25;;;27.30;60.20;;;;;;6338691;22;20003;-75
2022/07/29 03:53:07;;;;;;;7.78;2.13;;;27.20;60.50;;;;;;6338588;22;20477;-75
2022/07/29 03:55:39;;;;;;;2.08;1.73;;;27.20;60.80;;;;;;6336841;22;20013;-74
2022/07/29 03:58:06;;;;;;;2.65;2.03;;;27.20;60.70;;;;;;6337710;22;20003;-74
2022/07/29 04:00:33;;;;;;;2.03;1.83;;;27.20;61.00;;;;;;6310225;22;20009;-75
2022/07/29 04:02:59;;;;;;;3.00;1.92;;;27.10;61.40;;;;;;6337998;22;20019;-76
2022/07/29 04:05:25;;;;;;;2.22;1.48;;;27.10;61.90;;;;;;6338118;22;19990;-76
2022/07/29 04:07:50;;;;;;;2.50;1.98;;;27.00;61.90;;;;;;6338260;22;19998;-76
2022/07/29 04:10:17;;;;;;;2.47;2.17;;;27.00;62.10;;;;;;6310267;22;20034;-77
2022/07/29 04:12:43;;;;;;;3.28;2.60;;;27.00;62.50;;;;;;6338220;22;19999;-78
2022/07/29 04:15:09;;;;;;;3.63;2.30;;;27.00;63.30;;;;;;6338005;22;20048;-77
2022/07/29 04:17:35;;;;;;;2.25;1.80;;;26.90;62.70;;;;;;6310755;22;20014;-78
2022/07/29 04:20:00;;;;;;;3.25;2.42;;;26.90;62.90;;;;;;6338179;22;20078;-79
2022/07/29 04:22:26;;;;;;;2.88;2.13;;;26.90;63.60;;;;;;6337686;22;20011;-76
2022/07/29 04:24:52;;;;;;;4.63;2.20;;;26.70;64.10;;;;;;6338806;22;19998;-76
2022/07/29 04:27:18;;;;;;;4.07;2.45;;;26.80;63.70;;;;;;6339706;22;20002;-78
2022/07/29 04:29:43;;;;;;;3.00;2.60;;;26.80;64.20;;;;;;6340345;22;20146;-76
2022/07/29 04:32:09;;;;;;;3.75;2.60;;;26.80;64.00;;;;;;6312431;22;20006;-78
2022/07/29 04:34:35;;;;;;;2.72;2.17;;;26.80;64.20;;;;;;6339882;22;20010;-77
2022/07/29 04:37:00;;;;;;;4.38;2.47;;;26.70;64.50;;;;;;6340568;22;20027;-78
2022/07/29 04:39:26;;;;;;;2.97;1.90;;;26.70;65.00;;;;;;6340232;22;20005;-78
2022/07/29 04:41:52;;;;;;;2.20;2.00;;;26.60;64.60;;;;;;6339981;22;20325;-77
2022/07/29 04:44:18;;;;;;;4.70;2.50;;;26.70;64.70;;;;;;6339968;22;20007;-78
2022/07/29 04:46:44;;;;;;;2.30;2.10;;;26.60;65.50;;;;;;6339211;22;20002;-78
2022/07/29 04:49:10;;;;;;;2.80;2.30;;;26.70;65.10;;;;;;6339862;22;20439;-78
2022/07/29 04:51:35;;;;;;;2.97;2.22;;;26.70;65.40;;;;;;6311900;22;19999;-80
2022/07/29 04:54:01;;;;;;;2.47;2.15;;;26.60;65.30;;;;;;6339513;22;19999;-80
2022/07/29 04:56:27;;;;;;;3.97;2.33;;;26.60;65.40;;;;;;6311497;22;20033;-79
2022/07/29 04:58:53;;;;;;;2.83;2.50;;;26.60;65.80;;;;;;6312549;22;19999;-81
2022/07/29 05:01:19;;;;;;;5.72;2.67;;;26.50;66.00;;;;;;6339319;22;20010;-76
2022/07/29 05:03:46;;;;;;;4.70;2.58;;;26.50;66.00;;;;;;6340230;22;20002;-76
2022/07/29 05:06:11;;;;;;;2.90;2.30;;;26.60;66.30;;;;;;6311762;22;19999;-80
2022/07/29 05:08:37;;;;;;;3.83;2.60;;;26.60;66.10;;;;;;6339765;22;20074;-81
2022/07/29 05:11:03;;;;;;;2.90;2.25;;;26.60;66.20;;;;;;6338037;22;20022;-81
2022/07/29 05:13:30;;;;;;;2.90;2.55;;;26.60;66.00;;;;;;6339220;22;20021;-82
2022/07/29 05:16:00;;;;;;;4.25;2.47;;;26.70;66.20;;;;;;6311374;22;20017;-79
2022/07/29 05:18:25;;;;;;;;;;;26.70;66.10;;;;;;6340189;22;20006;-78
2022/07/29 05:20:51;;;;;;;5.13;2.85;;;26.70;66.80;;;;;;6339533;22;19899;-79
2022/07/29 05:23:17;;;;;;;4.45;3.03;;;26.60;66.50;;;;;;6339149;22;20006;-79
2022/07/29 05:25:43;;;;;;;5.75;3.13;;;26.60;66.80;;;;;;6338519;22;19998;-78
2022/07/29 05:28:09;;;;;;;5.93;2.90;;;26.50;67.00;;;;;;6339067;22;20361;-81
2022/07/29 05:30:35;;;;;;;4.22;2.95;;;26.30;67.30;;;;;;6311721;22;20003;-81
2022/07/29 05:33:01;;;;;;;7.20;3.67;;;26.20;67.90;;;;;;6311552;22;20429;-80
2022/07/29 05:35:27;;;;;;;4.18;2.70;;;26.30;68.30;;;;;;6338720;22;20031;-81
2022/07/29 05:37:52;;;;;;;6.15;3.03;;;26.40;67.60;;;;;;6339684;22;19999;-80
2022/07/29 05:40:18;;;;;;;2.40;2.10;;;26.40;67.70;;;;;;6339528;22;20026;-80
2022/07/29 05:42:44;;;;;;;7.32;3.05;;;26.60;67.40;;;;;;6339754;22;20002;-80
2022/07/29 05:45:10;;;;;;;3.83;2.72;;;26.70;67.10;;;;;;6339484;22;20365;-81
2022/07/29 05:47:35;;;;;;;3.55;2.78;;;26.70;67.20;;;;;;6339526;22;20401;-79
2022/07/29 05:50:01;;;;;;;5.78;3.22;;;26.90;67.40;;;;;;6339373;22;20006;-79
2022/07/29 05:52:27;;;;;;;4.18;3.08;;;27.00;67.30;;;;;;6339470;22;19999;-79
2022/07/29 05:54:53;;;;;;;5.43;2.92;;;27.00;66.90;;;;;;6311214;22;20007;-79
2022/07/29 05:57:21;;;;;;;10.68;4.25;;;27.10;66.90;;;;;;6311349;22;20026;-78
2022/07/29 05:59:48;;;;;;;6.15;2.72;;;27.00;66.40;;;;;;6338972;22;19999;-78
2022/07/29 06:02:14;;;;;;;6.13;3.00;;;27.10;66.40;;;;;;6337091;22;20413;-80
2022/07/29 06:04:40;;;;;;;3.40;3.08;;;27.20;66.30;;;;;;6335830;22;20007;-80
2022/07/29 06:07:06;;;;;;;3.75;2.83;;;27.20;66.50;;;;;;6336710;22;20070;-81
2022/07/29 06:09:32;;;;;;;3.55;2.70;;;27.30;66.30;;;;;;6337044;22;19994;-76
2022/07/29 06:11:58;;;;;;;3.85;3.00;;;27.30;66.00;;;;;;6336967;22;19998;-76
2022/07/29 06:14:25;;;;;;;5.10;2.85;;;27.30;65.80;;;;;;6336585;22;20025;-76
2022/07/29 06:16:50;;;;;;;3.90;2.72;;;27.40;65.80;;;;;;6337205;22;20075;-80
2022/07/29 06:19:16;;;;;;;3.35;2.95;;;27.40;65.80;;;;;;6337351;22;20426;-85
2022/07/29 06:21:46;;;;;;;3.00;2.55;;;27.50;65.50;;;;;;6336310;22;20010;-84
2022/07/29 06:24:13;;;;;;;2.80;2.50;;;27.50;65.40;;;;;;6336186;22;19998;-83
2022/07/29 06:26:39;;;;;;;4.05;2.78;;;27.60;65.20;;;;;;6335370;22;20440;-83
2022/07/29 06:29:06;;;;;;;3.80;2.35;;;27.60;65.20;;;;;;6338428;22;20003;-83
2022/07/29 06:31:31;;;;;;;5.28;2.67;;;27.70;65.20;;;;;;6338997;22;20073;-74
2022/07/29 06:33:57;;;;;;;5.97;2.72;;;27.70;64.70;;;;;;6336385;22;20087;-74
2022/07/29 06:36:26;;;;;;;3.65;2.55;;;27.70;64.40;;;;;;6332185;22;19999;-74
2022/07/29 06:38:52;;;;;;;3.85;2.70;;;27.70;64.10;;;;;;6338195;22;20030;-74
2022/07/29 06:41:18;;;;;;;4.25;2.67;;;27.80;64.10;;;;;;6338720;22;20478;-74
2022/07/29 06:43:45;;;;;;;3.55;3.10;;;27.80;64.00;;;;;;6335188;22;20030;-75
2022/07/29 06:46:13;;;;;;;2.47;2.13;;;27.80;63.60;;;;;;6338227;22;20021;-75
2022/07/29 06:48:41;;;;;;;5.30;2.60;;;27.80;63.60;;;;;;6310765;22;19998;-75
2022/07/29 06:51:15;;;;;;;3.35;2.45;;;27.90;63.30;;;;;;6338410;22;20390;-75
2022/07/29 06:53:41;;;;;;;3.92;2.28;;;27.90;62.50;;;;;;6338610;22;20020;-74
2022/07/29 06:56:12;;;;;;;3.40;2.30;;;27.80;62.50;;;;;;6338492;22;20034;-82
2022/07/29 06:58:38;;;;;;;4.20;2.50;;;27.90;62.60;;;;;;6339214;22;20003;-82
2022/07/29 07:01:08;;;;;;;3.88;2.22;;;27.90;62.30;;;;;;6338548;22;20068;-81
2022/07/29 07:03:34;;;;;;;5.55;2.50;;;27.90;62.20;;;;;;6339009;22;19999;-75
2022/07/29 07:06:00;;;;;;;3.72;2.30;;;28.00;62.00;;;;;;6336791;22;19998;-75
2022/07/29 07:08:25;;;;;;;2.70;2.22;;;28.10;61.80;;;;;;6339289;22;20056;-75
2022/07/29 07:10:52;;;;;;;52.88;47.20;;;28.10;61.40;;;;;;6337898;22;19998;-74
2022/07/29 07:13:18;;;;;;;55.70;49.63;;;28.20;61.40;;;;;;6338699;22;20013;-74
2022/07/29 07:15:45;;;;;;;43.17;38.67;;;28.20;61.40;;;;;;6338475;22;20003;-74
2022/07/29 07:18:11;;;;;;;14.43;12.88;;;28.30;61.50;;;;;;6338968;22;19999;-75
2022/07/29 07:20:37;;;;;;;8.40;7.20;;;28.40;61.30;;;;;;6339114;22;20009;-75
2022/07/29 07:23:03;;;;;;;5.15;3.40;;;28.40;60.90;;;;;;6311243;22;20010;-75
2022/07/29 07:25:29;;;;;;;4.72;2.75;;;28.40;58.90;;;;;;6309841;22;20700;-76
2022/07/29 07:27:54;;;;;;;3.50;2.97;;;28.50;59.90;;;;;;6338706;22;20067;-75
2022/07/29 07:30:21;;;;;;;2.70;2.47;;;28.50;58.80;;;;;;6338307;22;20329;-75
2022/07/29 07:32:46;;;;;;;2.97;2.22;;;28.50;59.50;;;;;;6338420;22;20026;-76
2022/07/29 07:35:12;;;;;;;8.02;3.45;;;28.60;59.40;;;;;;6338421;22;20440;-75
2022/07/29 07:37:42;;;;;;;3.17;2.22;;;28.50;58.20;;;;;;6338938;22;20042;-75
2022/07/29 07:40:11;;;;;;;3.15;2.70;;;28.50;58.90;;;;;;6337427;22;19999;-75
2022/07/29 07:42:37;;;;;;;3.33;2.53;;;28.60;58.90;;;;;;6337719;22;20013;-75
2022/07/29 07:45:04;;;;;;;4.28;2.92;;;28.60;58.70;;;;;;6310412;22;20334;-75
2022/07/29 07:47:30;;;;;;;6.85;3.40;;;28.70;58.70;;;;;;6338036;22;19999;-74
2022/07/29 07:49:57;;;;;;;2.67;2.38;;;28.70;58.00;;;;;;6338032;22;20073;-74
2022/07/29 07:52:22;;;;;;;2.70;2.40;;;28.80;58.50;;;;;;6310806;22;20003;-80
2022/07/29 07:54:49;;;;;;;5.38;3.03;;;28.80;58.50;;;;;;6308518;22;20325;-80
2022/07/29 07:57:18;;;;;;;3.28;2.15;;;28.90;58.50;;;;;;6308971;22;20006;-80
2022/07/29 07:59:47;;;;;;;4.88;2.83;;;28.90;58.40;;;;;;6336511;22;20060;-74
2022/07/29 08:02:13;;;;;;;2.77;2.50;;;29.00;58.50;;;;;;6336852;22;20657;-82
2022/07/29 08:04:40;;;;;;;3.20;2.63;;;29.10;58.50;;;;;;6337256;22;20007;-82
2022/07/29 08:07:07;;;;;;;3.17;2.40;;;29.20;58.40;;;;;;6336695;22;20002;-82
2022/07/29 08:09:34;;;;;;;6.13;2.47;;;29.20;58.70;;;;;;6337514;22;20441;-82
2022/07/29 08:12:02;;;;;;;3.55;2.38;;;29.30;58.50;;;;;;6337873;22;20026;-82
2022/07/29 08:14:29;;;;;;;3.88;2.67;;;29.40;58.60;;;;;;6337713;22;20010;-81
2022/07/29 08:16:54;;;;;;;4.35;3.10;;;29.50;58.30;;;;;;6336575;22;20003;-81
2022/07/29 08:19:23;;;;;;;2.78;2.47;;;29.50;58.00;;;;;;6334866;22;20013;-81
2022/07/29 08:21:49;;;;;;;3.13;2.75;;;29.60;57.90;;;;;;6336115;22;20476;-81
2022/07/29 08:26:59;;;;;;;7.07;2.95;;;29.70;56.90;;;;;;6336516;22;20058;-74
2022/07/29 08:29:25;;;;;;;4.15;2.83;;;29.70;56.40;;;;;;6337496;22;19999;-78
2022/07/29 08:31:51;;;;;;;3.63;2.53;;;29.80;56.50;;;;;;6336444;22;20406;-78
2022/07/29 08:34:17;;;;;;;2.25;2.05;;;29.80;56.50;;;;;;6337611;22;20007;-74
2022/07/29 08:36:43;;;;;;;3.67;2.70;;;29.80;56.30;;;;;;6337710;22;20010;-74
2022/07/29 08:39:09;;;;;;;4.93;2.83;;;29.90;56.00;;;;;;6336650;22;20030;-74
2022/07/29 08:41:35;;;;;;;4.68;3.13;;;29.90;55.50;;;;;;6307777;22;20003;-74
2022/07/29 08:44:01;;;;;;;6.25;3.28;;;30.00;55.80;;;;;;6335350;22;20003;-80
2022/07/29 08:46:26;;;;;;;3.80;2.80;;;30.00;54.80;;;;;;6334437;22;20329;-74
2022/07/29 08:48:52;;;;;;;5.68;2.53;;;30.10;55.40;;;;;;6333958;22;20022;-74
2022/07/29 08:51:20;;;;;;;3.22;2.35;;;30.20;55.30;;;;;;6334469;22;19995;-74
2022/07/29 08:53:48;;;;;;;3.42;2.45;;;30.30;55.60;;;;;;6335159;22;20314;-79
2022/07/29 08:56:17;;;;;;;9.63;2.65;;;30.40;55.80;;;;;;6335024;22;20007;-80
2022/07/29 08:58:43;;;;;;;3.80;2.25;;;30.50;55.70;;;;;;6334762;22;20007;-80
2022/07/29 09:01:10;;;;;;;3.53;2.67;;;30.60;55.40;;;;;;6334950;22;20011;-80
2022/07/29 09:03:36;;;;;;;3.28;2.30;;;30.70;55.20;;;;;;6335320;22;20049;-80
2022/07/29 09:06:03;;;;;;;4.90;2.78;;;30.80;55.30;;;;;;6334888;22;20002;-79
2022/07/29 09:08:32;;;;;;;4.43;2.85;;;30.90;55.20;;;;;;6334755;22;20078;-79
2022/07/29 09:10:59;;;;;;;3.67;2.45;;;31.00;54.90;;;;;;6337373;22;20059;-79
2022/07/29 09:13:25;;;;;;;3.38;2.30;;;31.10;54.50;;;;;;6337241;22;20003;-80
2022/07/29 09:15:52;;;;;;;3.92;2.40;;;31.20;54.40;;;;;;6336792;22;20026;-79
2022/07/29 09:18:47;;;;;;;2.60;2.40;;;31.20;53.70;;;;;;6336755;22;20010;-73
2022/07/29 09:24:12;;;;;;;4.22;2.63;;;31.30;52.50;;;;;;6336300;22;20096;-73
2022/07/29 09:26:44;;;;;;;2.10;1.90;;;31.40;50.40;;;;;;6336375;22;20010;-73
2022/07/29 09:29:12;;;;;;;4.25;2.38;;;31.40;51.20;;;;;;6335683;22;20045;-72
2022/07/29 09:31:40;;;;;;;4.63;2.80;;;31.40;51.30;;;;;;6336863;22;20002;-73
2022/07/29 09:34:08;;;;;;;4.20;2.40;;;31.50;50.20;;;;;;6335116;22;20003;-73
2022/07/29 09:36:53;;;;;;;2.78;2.20;;;31.50;50.70;;;;;;6336152;22;20037;-74
2022/07/29 09:39:45;;;;;;;3.17;2.35;;;31.60;50.80;;;;;;6336530;22;20006;-73
2022/07/29 09:42:12;;;;;;;5.50;2.70;;;31.70;50.60;;;;;;6336452;22;20052;-73
2022/07/29 09:44:50;;;;;;;4.47;2.58;;;31.80;49.90;;;;;;6336020;22;20015;-73
2022/07/29 09:47:18;;;;;;;3.35;2.67;;;31.80;49.00;;;;;;6336269;22;20421;-73
2022/07/29 09:49:58;;;;;;;4.18;2.22;;;32.00;49.80;;;;;;6335281;22;20003;-73
2022/07/29 09:52:25;;;;;;;4.63;2.92;;;32.10;49.80;;;;;;6336584;22;20019;-73
2022/07/29 09:54:51;;;;;;;5.43;2.25;;;32.20;49.80;;;;;;6307965;22;20010;-73
2022/07/29 09:57:27;;;;;;;6.18;3.10;;;32.30;49.40;;;;;;6336409;22;20148;-73
2022/07/29 10:00:05;;;;;;;4.20;2.95;;;32.40;49.90;;;;;;6334870;22;20150;-73
2022/07/29 10:02:33;;;;;;;6.82;4.05;;;32.50;50.50;;;;;;6335284;22;20014;-73
2022/07/29 10:05:00;;;;;;;6.32;3.50;;;32.70;50.80;;;;;;6335584;22;19999;-74
2022/07/29 10:07:26;;;;;;;5.65;3.20;;;32.80;50.90;;;;;;6336507;22;19995;-73
2022/07/29 10:09:57;;;;;;;8.70;3.90;;;32.90;50.90;;;;;;6337347;22;19999;-73
2022/07/29 10:12:23;;;;;;;5.15;3.53;;;33.00;50.50;;;;;;6309041;22;20087;-73
2022/07/29 10:14:50;;;;;;;5.53;3.50;;;33.10;51.00;;;;;;6337476;22;20327;-73
2022/07/29 10:17:16;;;;;;;6.95;3.45;;;33.20;50.40;;;;;;6337094;22;20658;-73
2022/07/29 10:19:42;;;;;;;12.05;3.50;;;33.30;50.30;;;;;;6335755;22;19999;-73
2022/07/29 10:22:10;;;;;;;5.82;2.92;;;33.30;50.20;;;;;;6336892;22;20007;-74
2022/07/29 10:24:37;;;;;;;6.03;3.53;;;33.30;50.00;;;;;;6337072;22;20302;-73
2022/07/29 10:27:06;;;;;;;5.85;3.90;;;33.40;50.10;;;;;;6337666;22;20128;-73
2022/07/29 10:29:32;;;;;;;3.63;2.90;;;33.60;50.10;;;;;;6335702;22;20411;-74
2022/07/29 10:32:07;;;;;;;4.43;3.65;;;33.60;49.80;;;;;;6335950;22;20259;-73
2022/07/29 10:34:51;;;;;;;5.18;2.95;;;33.70;49.60;;;;;;6336951;22;20025;-73
2022/07/29 10:37:43;;;;;;;3.85;3.40;;;33.90;49.80;;;;;;6336950;22;20753;-73
2022/07/29 10:43:44;;;;;;;6.63;3.63;;;34.10;50.10;;;;;;6336909;22;20021;-73
2022/07/29 10:46:11;;;;;;;;;;;34.20;49.70;;;;;;6336660;22;20367;-73
2022/07/29 10:49:11;;;;;;;6.72;3.75;;;34.40;49.90;;;;;;6335104;22;19956;-73
2022/07/29 10:52:00;;;;;;;4.75;3.30;;;34.50;49.60;;;;;;6337145;22;19994;-73
2022/07/29 10:54:45;;;;;;;6.40;3.42;;;34.60;49.50;;;;;;6309341;22;20099;-72
2022/07/29 10:57:14;;;;;;;7.10;3.88;;;34.70;48.90;;;;;;6333842;22;20007;-72
2022/07/29 10:59:41;;;;;;;4.03;3.60;;;34.80;48.60;;;;;;6334921;22;20501;-77
2022/07/29 11:02:35;;;;;;;5.15;3.10;;;34.90;48.60;;;;;;6335442;22;20444;-73
2022/07/29 11:05:06;;;;;;;5.85;4.03;;;35.10;48.50;;;;;;6335445;22;20029;-73
2022/07/29 11:07:36;;;;;;;4.43;3.50;;;35.10;48.40;;;;;;6335555;22;19995;-72
2022/07/29 11:10:16;;;;;;;6.63;3.47;;;35.20;48.30;;;;;;6335013;22;20002;-73
2022/07/29 11:12:42;;;;;;;6.00;3.40;;;35.30;48.00;;;;;;6335706;22;20026;-72
2022/07/29 11:15:22;;;;;;;5.07;3.53;;;35.40;48.00;;;;;;6336138;22;19995;-73
2022/07/29 11:17:54;;;;;;;5.00;3.63;;;35.50;47.60;;;;;;6334847;22;20464;-73
2022/07/29 11:20:34;;;;;;;4.32;3.47;;;35.60;47.60;;;;;;6307325;22;20033;-77
2022/07/29 11:23:01;;;;;;;4.75;3.85;;;35.70;47.20;;;;;;6333383;22;20053;-78
2022/07/29 11:25:27;;;;;;;3.83;2.80;;;35.80;47.70;;;;;;6335488;22;20070;-77
2022/07/29 11:28:08;;;;;;;4.50;3.88;;;36.00;48.00;;;;;;6334489;22;19994;-78
2022/07/29 11:30:49;;;;;;;4.85;3.40;;;36.20;47.80;;;;;;6335003;22;20006;-73
2022/07/29 11:33:31;;;;;;;7.55;4.03;;;36.30;47.00;;;;;;6307982;22;20013;-73
2022/07/29 11:36:14;;;;;;;7.68;4.07;;;36.50;46.50;;;;;;6334613;22;20072;-73
2022/07/29 11:38:41;;;;;;;3.85;3.50;;;36.70;46.00;;;;;;6335638;22;20056;-73
2022/07/29 11:41:26;;;;;;;6.78;4.53;;;37.00;46.10;;;;;;6335178;22;20003;-73
2022/07/29 11:43:57;;;;;;;6.40;3.97;;;37.30;44.40;;;;;;6335457;22;20025;-73
2022/07/29 11:46:41;;;;;;;5.28;3.33;;;37.60;44.90;;;;;;6335370;22;20066;-78
2022/07/29 11:49:08;;;;;;;3.45;2.97;;;37.90;44.20;;;;;;6334835;22;20048;-77
2022/07/29 11:51:35;;;;;;;4.63;3.50;;;38.10;43.80;;;;;;6335178;22;19999;-78
2022/07/29 11:54:03;;;;;;;6.95;3.53;;;38.40;43.20;;;;;;6335029;22;20082;-78
2022/07/29 11:56:31;;;;;;;5.25;3.25;;;38.60;42.80;;;;;;6334770;22;20048;-78
2022/07/29 11:59:06;;;;;;;4.35;2.72;;;38.90;42.70;;;;;;6335581;22;20022;-78
2022/07/29 12:01:32;;;;;;;4.93;2.85;;;39.00;40.60;;;;;;6334871;22;20017;-78
2022/07/29 12:04:06;;;;;;;3.75;3.03;;;39.10;41.60;;;;;;6334618;22;20011;-78
2022/07/29 12:06:33;;;;;;;3.95;3.10;;;39.30;41.20;;;;;;6334838;22;20274;-78
2022/07/29 12:08:59;;;;;;;5.20;2.45;;;39.50;40.80;;;;;;6336117;22;20003;-78
2022/07/29 12:11:25;;;;;;;3.13;2.60;;;39.70;40.50;;;;;;6333796;22;20038;-78
2022/07/29 12:13:52;;;;;;;5.35;3.22;;;39.80;39.30;;;;;;6334553;22;19999;-78
2022/07/29 12:16:19;;;;;;;3.60;2.55;;;40.00;39.10;;;;;;6334358;22;20007;-78
2022/07/29 12:18:59;;;;;;;6.50;2.15;;;40.00;39.20;;;;;;6335177;22;19998;-79
2022/07/29 12:21:25;;;;;;;4.07;3.10;;;40.00;39.10;;;;;;6334943;22;20002;-78
2022/07/29 12:23:55;;;;;;;4.30;2.78;;;40.10;39.80;;;;;;6307412;22;20007;-79
2022/07/29 12:26:21;;;;;;;10.70;4.10;;;40.20;39.20;;;;;;6335263;22;20112;-79
2022/07/29 12:28:48;;;;;;;3.95;2.78;;;40.10;39.00;;;;;;6335332;22;20003;-78
2022/07/29 12:31:14;;;;;;;3.08;2.35;;;40.10;39.30;;;;;;6335268;22;20049;-78
2022/07/29 12:33:42;;;;;;;3.63;2.72;;;40.10;39.30;;;;;;6335523;22;20033;-78
2022/07/29 12:36:08;;;;;;;6.00;2.80;;;40.20;38.70;;;;;;6335303;22;20042;-77
2022/07/29 12:38:35;;;;;;;3.92;2.63;;;40.30;38.40;;;;;;6335381;22;20006;-77
2022/07/29 12:41:02;;;;;;;3.00;2.50;;;40.40;38.50;;;;;;6307361;22;20002;-73
2022/07/29 12:43:27;;;;;;;3.58;2.50;;;40.50;38.50;;;;;;6335069;22;20010;-72
2022/07/29 12:45:55;;;;;;;4.10;2.90;;;40.60;37.70;;;;;;6336861;22;20518;-76
2022/07/29 12:48:35;;;;;;;4.22;2.40;;;40.60;37.20;;;;;;6336930;22;19995;-77
2022/07/29 12:51:02;;;;;;;6.72;2.60;;;40.70;37.50;;;;;;6336537;22;20002;-72
2022/07/29 12:53:28;;;;;;;5.28;2.60;;;40.70;37.30;;;;;;6335491;22;20471;-72
2022/07/29 12:55:56;;;;;;;2.50;2.25;;;40.70;36.60;;;;;;6334479;22;20451;-73
2022/07/29 12:58:32;;;;;;;6.60;3.00;;;40.50;37.20;;;;;;6335906;22;20030;-76
2022/07/29 13:01:05;;;;;;;2.65;2.45;;;40.50;36.70;;;;;;6335674;22;20018;-77
2022/07/29 13:03:57;;;;;;;3.15;2.80;;;40.60;37.10;;;;;;6334600;22;20010;-78
2022/07/29 13:06:41;;;;;;;3.65;2.42;;;40.70;37.20;;;;;;6336614;22;20003;-78
2022/07/29 13:09:17;;;;;;;3.00;2.42;;;40.70;36.50;;;;;;6336532;22;19998;-80
2022/07/29 13:11:47;;;;;;;2.65;2.45;;;40.70;37.00;;;;;;6308752;22;20007;-74